Weather observations for the past three days for
MOUNT WILSON
Imperial (Metric)
Date Time (pdt) Wind (mph) Vis. (mi.) Weather Sky Cond. Temperature (ºF) Relative Humidity Wind Chill (°F) Heat Index (°F) Pressure Precipitation (in)
Air Dwpt 6 hour altimeter (in) sea level (mb) 1 hr 3 hr 6 hr
Max. Min.
05 01:20 W 1 0.00 NULL NULL 37.4 37.4 100% 0 0.0
05 00:20 SW 3 0.00 NULL NULL 37.4 37.4 100% 0 0.0
04 23:20 SW 5 0.00 NULL NULL 35.6 35.6 100% 32 0 0.0
04 22:20 W 1 0.00 NULL NULL 35.6 35.6 100% 0 0.0
04 21:20 W 2 G 6 0.00 NULL NULL 37.4 37.4 100% 0 0.0
04 20:20 SW 5 G 6 0.00 NULL NULL 39.2 39.2 100% 36 0 0.0
04 19:20 SW 6 G 7 0.00 NULL NULL 39.2 39.2 100% 36 0 0.0
04 18:20 SW 6 0.00 NULL NULL 39.2 39.2 100% 36 0 0.0
04 16:55 SW 5 0.00 NULL NULL 41 41 100% 38 0 0.0
04 16:20 W 7 0.00 NULL NULL 41 41 100% 37 0 0.0
04 15:20 SW 5 G 7 0.00 NULL NULL 39.2 39.2 100% 36 0 0.0
04 14:20 SW 9 G 12 0.00 NULL NULL 39.2 39.2 100% 34 0 0.0
04 13:20 SW 8 0.00 NULL NULL 39.2 39.2 100% 34 0 0.0
04 12:20 SW 6 0.00 NULL NULL 39.2 39.2 100% 36 0 0.0
04 11:20 W 3 G 6 0.00 NULL NULL 39.2 39.2 100% 0 0.0
04 10:20 SW 6 0.00 NULL NULL 39.2 39.2 100% 36 0 0.0
04 09:20 SW 5 G 8 0.00 NULL NULL 37.4 37.4 100% 34 0 0.0
04 08:20 SW 5 G 7 0.00 NULL NULL 37.4 37.4 100% 34 0 0.0
04 07:20 SW 6 G 8 0.00 NULL NULL 35.6 35.6 100% 31 0 0.0
04 06:20 W 3 G 6 0.00 NULL NULL 35.6 35.6 100% 0 0.0
04 05:20 NW 1 0.00 NULL NULL 35.6 35.6 100% 0 0.0
04 04:20 SW 5 G 6 0.00 NULL NULL 35.6 35.6 100% 32 0 0.0
04 03:20 NE 1 0.00 NULL NULL 35.6 35.6 100% 0 0.0
04 02:20 S 1 0.00 NULL NULL 35.6 35.6 100% 0 0.0
04 01:20 SW 9 0.00 NULL NULL 35.6 35.6 100% 29 0 0.0
04 00:20 SW 7 G 12 0.00 NULL NULL 37.4 37.4 100% 33 0 0.0
03 23:20 SW 6 G 8 0.00 NULL NULL 37.4 37.4 100% 33 0 0.0
03 22:20 SW 6 0.00 NULL NULL 39.2 37.4 93% 36 0 0.0
03 21:20 SW 6 G 8 0.00 NULL NULL 39.2 39.2 100% 36 0 0.0
03 20:20 SW 6 0.00 NULL NULL 39.2 39.2 100% 36 0 0.0
03 19:20 SW 6 G 8 0.00 NULL NULL 41 41 100% 38 0 0.0
03 18:20 S 3 G 6 0.00 NULL NULL 42.8 41 93% 0 0.0
03 17:20 NE 3 G 8 0.00 NULL NULL 44.6 42.8 93% 0 0.0
03 16:20 W 2 0.00 NULL NULL 44.6 42.8 93% 0 0.0
03 15:20 S 5 G 8 0.00 NULL NULL 44.6 42.8 93% 43 0 0.0
03 13:20 SW 2 0.00 NULL NULL 48.2 46.4 94% 0 0.0
03 12:20 S 3 0.00 NULL NULL 51.8 41 67% 0 0.0
03 11:20 W 1 0.00 NULL NULL 46.4 44.6 93% 0 0.0
03 10:20 SW 3 0.00 NULL NULL 51.8 41 67% 0 0.0
03 09:20 S 6 0.00 NULL NULL 51.8 32 47% 0 0.0
03 08:20 S 7 G 14 0.00 NULL NULL 51.8 30.2 44% 0 0.0
03 07:20 S 6 0.00 NULL NULL 51.8 26.6 38% 0 0.0
03 06:20 S 5 0.00 NULL NULL 51.8 26.6 38% 0 0.0
03 05:20 S 6 0.00 NULL NULL 51.8 28.4 41% 0 0.0
03 04:20 S 7 G 15 0.00 NULL NULL 53.6 30.2 41% 0 0.0
03 03:20 S 3 G 20 0.00 NULL NULL 51.8 28.4 41% 0 0.0
03 02:20 S 7 G 14 0.00 NULL NULL 53.6 32 44% 0 0.0
03 01:20 S 7 G 12 0.00 NULL NULL 55.4 26.6 33% 0 0.0
03 00:20 S 5 0.00 NULL NULL 55.4 24.8 31% 0 0.0
02 23:20 S 5 0.00 NULL NULL 55.4 24.8 31% 0 0.0
02 22:20 S 7 0.00 NULL NULL 57.2 23 27% 0 0.0
02 21:20 SW 5 G 7 0.00 NULL NULL 57.2 24.8 29% 0 0.0
02 20:20 SW 8 0.00 NULL NULL 57.2 23 27% 0 0.0
02 19:20 SW 6 G 8 0.00 NULL NULL 60.8 23 23% 0 0.0
02 18:20 SW 6 0.00 NULL NULL 66.2 26.6 22% 0 0.0
02 17:20 SW 6 0.00 NULL NULL 68 33.8 28% 0 0.0
02 16:20 SW 5 G 8 0.00 NULL NULL 69.8 37.4 31% 0 0.0
02 15:20 W 5 G 8 0.00 NULL NULL 69.8 37.4 31% 0 0.0
02 14:20 SW 6 G 8 0.00 NULL NULL 68 39.2 35% 0 0.0
02 13:20 S 7 G 12 0.00 NULL NULL 68 33.8 28% 0 0.0
02 12:20 W 2 G 8 0.00 NULL NULL 66.2 33.8 30% 0 0.0
02 11:20 S 6 G 12 0.00 NULL NULL 66.2 33.8 30% 0 0.0
02 10:20 SW 2 0.00 NULL NULL 62.6 30.2 30% 0 0.0
02 09:20 W 1 0.00 NULL NULL 60.8 32 34% 0 0.0
02 08:20 E 1 0.00 NULL NULL 59 30.2 34% 0 0.0
02 07:20 S 1 0.00 NULL NULL 59 24.8 27% 0 0.0
02 06:20 S 3 0.00 NULL NULL 59 21.2 23% 0 0.0
02 05:20 S 2 0.00 NULL NULL 59 23 25% 0 0.0
02 04:20 SE 5 G 6 0.00 NULL NULL 60.8 23 23% 0 0.0
02 03:20 SE 3 0.00 NULL NULL 59 21.2 23% 0 0.0
02 02:20 Calm 0.00 NULL NULL 59 21.2 23% 0 0.0
Date Time (pdt) Wind (mph) Vis. (mi.) Weather Sky Cond. Air Dwpt Max. Min. Relative Humidity Wind Chill (°F) Heat Index (°F) altimeter (in) sea level (mb) 1 hr 3 hr 6 hr
6 hour
Temperature (ºF) Pressure Precipitation (in)